createdAt,value
2018-04-17T00:00:15.835Z,20.8
2018-04-17T00:01:05.919Z,20.8
2018-04-17T00:01:55.952Z,20.8
2018-04-17T00:02:45.761Z,20.8
2018-04-17T00:03:35.552Z,20.8
2018-04-17T00:04:25.877Z,20.8
2018-04-17T00:05:16.232Z,20.8
2018-04-17T00:06:05.992Z,20.8
2018-04-17T00:06:56.072Z,20.8
2018-04-17T00:07:45.846Z,20.8
2018-04-17T00:08:35.630Z,20.8
2018-04-17T00:09:26.563Z,20.8
2018-04-17T00:10:16.576Z,20.8
2018-04-17T00:11:06.204Z,20.8
2018-04-17T00:11:56.714Z,20.8
2018-04-17T00:12:46.774Z,20.8
2018-04-17T00:13:36.856Z,20.8
2018-04-17T00:14:26.916Z,20.8
2018-04-17T00:15:16.436Z,20.8
2018-04-17T00:16:07.021Z,20.8
2018-04-17T00:16:57.134Z,20.8
2018-04-17T00:17:47.157Z,20.8
2018-04-17T00:18:37.226Z,20.8
2018-04-17T00:19:26.770Z,20.7
2018-04-17T00:20:17.383Z,20.8
2018-04-17T00:21:07.458Z,20.7
2018-04-17T00:21:57.223Z,20.7
2018-04-17T00:22:47.283Z,20.7
2018-04-17T00:23:37.325Z,20.7
2018-04-17T00:24:27.392Z,20.7
2018-04-17T00:25:17.153Z,20.6
2018-04-17T00:26:07.803Z,20.7
2018-04-17T00:26:57.623Z,20.7
2018-04-17T00:27:47.927Z,20.7
2018-04-17T00:28:37.417Z,20.7
2018-04-17T00:29:27.810Z,20.7
2018-04-17T00:30:17.872Z,20.7
2018-04-17T00:31:07.298Z,20.7
2018-04-17T00:31:57.725Z,20.7
2018-04-17T00:32:48.292Z,20.7
2018-04-17T00:33:38.191Z,20.7
2018-04-17T00:34:28.166Z,20.6
2018-04-17T00:35:18.506Z,20.6
2018-04-17T00:36:08.297Z,20.6
2018-04-17T00:36:58.316Z,20.6
2018-04-17T00:37:48.437Z,20.6
2018-04-17T00:38:38.473Z,20.6
2018-04-17T00:39:28.256Z,20.6
2018-04-17T00:40:18.593Z,20.6
2018-04-17T00:41:08.656Z,20.6
2018-04-17T00:41:59.024Z,20.6
2018-04-17T00:42:48.764Z,20.6
2018-04-17T00:43:39.120Z,20.6
2018-04-17T00:44:29.183Z,20.6
2018-04-17T00:45:18.970Z,20.6
2018-04-17T00:46:09.322Z,20.6
2018-04-17T00:46:59.364Z,20.6
2018-04-17T00:47:49.426Z,20.6
2018-04-17T00:48:38.926Z,20.6
2018-04-17T00:49:29.574Z,20.6
2018-04-17T00:50:19.032Z,20.6
2018-04-17T00:51:09.677Z,20.6
2018-04-17T00:51:59.469Z,20.6
2018-04-17T00:52:49.573Z,20.6
2018-04-17T00:53:39.878Z,20.6
2018-04-17T00:54:29.652Z,20.6
2018-04-17T00:55:19.717Z,20.6
2018-04-17T00:56:10.077Z,20.5
2018-04-17T00:56:59.576Z,20.6
2018-04-17T00:57:49.604Z,20.5
2018-04-17T00:58:39.690Z,20.5
2018-04-17T00:59:30.312Z,20.5
2018-04-17T01:00:20.384Z,20.6
2018-04-17T01:01:10.431Z,20.5
2018-04-17T01:01:59.658Z,20.5
2018-04-17T01:02:50.562Z,20.5
2018-04-17T01:03:40.334Z,20.5
2018-04-17T01:04:29.847Z,20.5
2018-04-17T01:05:20.765Z,20.5
2018-04-17T01:06:10.803Z,20.5
2018-04-17T01:07:00.864Z,20.5
2018-04-17T01:07:50.364Z,20.5
2018-04-17T01:08:40.755Z,20.5
2018-04-17T01:09:30.792Z,20.5
2018-04-17T01:10:20.274Z,20.5
2018-04-17T01:11:11.206Z,20.5
2018-04-17T01:12:01.271Z,20.4
2018-04-17T01:12:51.304Z,20.5
2018-04-17T01:13:41.103Z,20.4
2018-04-17T01:14:31.455Z,20.5
2018-04-17T01:15:21.232Z,20.4
2018-04-17T01:16:10.983Z,20.4
2018-04-17T01:17:01.649Z,20.5
2018-04-17T01:17:50.847Z,20.5
2018-04-17T01:18:41.742Z,20.4
2018-04-17T01:19:31.546Z,20.4
2018-04-17T01:20:21.324Z,20.4
2018-04-17T01:21:11.683Z,20.4
2018-04-17T01:22:01.718Z,20.4
2018-04-17T01:22:52.065Z,20.4
2018-04-17T01:23:41.874Z,20.4
2018-04-17T01:24:32.206Z,20.4
2018-04-17T01:25:22.264Z,20.4
2018-04-17T01:26:12.060Z,20.4
2018-04-17T01:27:02.374Z,20.4
2018-04-17T01:27:52.445Z,20.4
2018-04-17T01:28:42.250Z,20.4
2018-04-17T01:29:32.571Z,20.4
2018-04-17T01:30:22.360Z,20.4
2018-04-17T01:31:11.854Z,20.4
2018-04-17T01:32:02.758Z,20.4
2018-04-17T01:32:52.545Z,20.4
2018-04-17T01:33:42.895Z,20.4
2018-04-17T01:34:32.925Z,20.4
2018-04-17T01:35:23.021Z,20.4
2018-04-17T01:36:13.062Z,20.4
2018-04-17T01:37:02.839Z,20.4
2018-04-17T01:37:52.384Z,20.4
2018-04-17T01:38:43.002Z,20.4
2018-04-17T01:39:33.359Z,20.4
2018-04-17T01:40:23.116Z,20.4
2018-04-17T01:41:13.167Z,20.4
2018-04-17T01:42:02.955Z,20.4
2018-04-17T01:42:53.587Z,20.4
2018-04-17T01:43:43.457Z,20.4
2018-04-17T01:44:33.681Z,20.4
2018-04-17T01:45:23.491Z,20.4
2018-04-17T01:46:13.544Z,20.4
2018-04-17T01:47:03.609Z,20.4
2018-04-17T01:47:53.690Z,20.4
2018-04-17T01:48:43.757Z,20.4
2018-04-17T01:49:33.529Z,20.4
2018-04-17T01:50:23.571Z,20.4
2018-04-17T01:51:13.914Z,20.4
2018-04-17T01:52:04.257Z,20.4
2018-04-17T01:52:54.062Z,20.4
2018-04-17T01:53:44.132Z,20.4
2018-04-17T01:54:34.462Z,20.4
2018-04-17T01:55:24.498Z,20.4
2018-04-17T01:56:14.897Z,20.4
2018-04-17T01:57:04.351Z,20.4
2018-04-17T01:57:54.437Z,20.4
2018-04-17T01:58:44.207Z,20.4
2018-04-17T01:59:33.697Z,20.4
2018-04-17T02:00:24.626Z,20.4
2018-04-17T02:01:14.661Z,20.4
2018-04-17T02:02:04.738Z,20.4
2018-04-17T02:02:55.092Z,20.4
2018-04-17T02:03:45.189Z,20.4
2018-04-17T02:04:34.944Z,20.3
2018-04-17T02:05:25.288Z,20.4
2018-04-17T02:06:15.061Z,20.4
2018-04-17T02:07:04.566Z,20.4
2018-04-17T02:07:55.194Z,20.4
2018-04-17T02:08:44.658Z,20.4
2018-04-17T02:09:35.315Z,20.4
2018-04-17T02:10:25.105Z,20.4
2018-04-17T02:11:15.698Z,20.4
2018-04-17T02:12:05.797Z,20.4
2018-04-17T02:12:55.875Z,20.4
2018-04-17T02:13:45.885Z,20.4
2018-04-17T02:14:35.686Z,20.4
2018-04-17T02:15:26.022Z,20.4
2018-04-17T02:16:16.081Z,20.3
2018-04-17T02:17:05.883Z,20.4
2018-04-17T02:17:56.230Z,20.3
2018-04-17T02:18:46.321Z,20.3
2018-04-17T02:19:36.350Z,20.4
2018-04-17T02:20:26.124Z,20.3
2018-04-17T02:21:16.207Z,20.4
2018-04-17T02:22:06.540Z,20.4
2018-04-17T02:22:56.309Z,20.4
2018-04-17T02:23:46.109Z,20.4
2018-04-17T02:24:36.691Z,20.4
2018-04-17T02:25:26.499Z,20.3
2018-04-17T02:26:16.832Z,20.4
2018-04-17T02:27:06.346Z,20.4
2018-04-17T02:27:56.979Z,20.4
2018-04-17T02:28:47.042Z,20.4
2018-04-17T02:29:36.794Z,20.4
2018-04-17T02:30:26.888Z,20.4
2018-04-17T02:31:16.950Z,20.3
2018-04-17T02:32:07.013Z,20.3
2018-04-17T02:32:56.800Z,20.4
2018-04-17T02:33:47.437Z,20.4
2018-04-17T02:34:37.193Z,20.4
2018-04-17T02:35:27.540Z,20.3
2018-04-17T02:36:17.616Z,20.4
2018-04-17T02:37:07.403Z,20.4
2018-04-17T02:37:57.450Z,20.4
2018-04-17T02:38:47.787Z,20.4
2018-04-17T02:39:37.599Z,20.4
2018-04-17T02:40:27.929Z,20.4
2018-04-17T02:41:17.705Z,20.4
2018-04-17T02:42:07.491Z,20.4
2018-04-17T02:42:58.139Z,20.4
2018-04-17T02:43:48.176Z,20.4
2018-04-17T02:44:37.974Z,20.4
2018-04-17T02:45:28.025Z,20.4
2018-04-17T02:46:18.389Z,20.4
2018-04-17T02:47:08.124Z,20.4
2018-04-17T02:47:57.438Z,20.4
2018-04-17T02:48:48.258Z,20.4
2018-04-17T02:49:38.603Z,20.4
2018-04-17T02:50:28.381Z,20.4
2018-04-17T02:51:18.749Z,20.4
2018-04-17T02:52:08.795Z,20.4
2018-04-17T02:52:58.840Z,20.4
2018-04-17T02:53:48.642Z,20.4
2018-04-17T02:54:38.999Z,20.4
2018-04-17T02:55:29.031Z,20.4
2018-04-17T02:56:18.259Z,20.4
2018-04-17T02:57:09.162Z,20.4
2018-04-17T02:57:58.989Z,20.4
2018-04-17T02:59:39.052Z,20.4
2018-04-17T03:00:29.407Z,20.4
2018-04-17T03:01:19.474Z,20.4
2018-04-17T03:02:08.976Z,20.4
2018-04-17T03:02:59.351Z,20.4
2018-04-17T03:03:48.826Z,20.4
2018-04-17T03:04:39.521Z,20.4
2018-04-17T03:05:29.525Z,20.4
2018-04-17T03:06:19.576Z,20.4
2018-04-17T03:07:09.929Z,20.4
2018-04-17T03:07:59.433Z,20.4
2018-04-17T03:08:49.473Z,20.4
2018-04-17T03:09:39.837Z,20.4
2018-04-17T03:10:30.173Z,20.4
2018-04-17T03:11:19.949Z,20.4
2018-04-17T03:12:09.463Z,20.4
2018-04-17T03:13:00.063Z,20.4
2018-04-17T03:13:50.418Z,20.4
2018-04-17T03:14:40.518Z,20.4
2018-04-17T03:15:30.553Z,20.4
2018-04-17T03:16:20.600Z,20.4
2018-04-17T03:17:10.667Z,20.4
2018-04-17T03:18:00.727Z,20.4
2018-04-17T03:18:50.505Z,20.4
2018-04-17T03:19:40.855Z,20.4
2018-04-17T03:20:30.923Z,20.4
2018-04-17T03:21:20.988Z,20.4
2018-04-17T03:22:10.760Z,20.4
2018-04-17T03:23:01.099Z,20.5
2018-04-17T03:23:50.991Z,20.6
2018-04-17T03:24:41.277Z,20.7
2018-04-17T03:25:31.120Z,20.7
2018-04-17T03:26:21.067Z,20.8
2018-04-17T03:27:11.197Z,20.8
2018-04-17T03:28:01.221Z,20.9
2018-04-17T03:28:51.274Z,20.9
2018-04-17T03:29:41.352Z,20.9
2018-04-17T03:30:31.098Z,21
2018-04-17T03:31:21.739Z,21.1
2018-04-17T03:34:41.708Z,21.1
2018-04-17T03:35:32.055Z,21.1
2018-04-17T03:36:22.105Z,21.1
2018-04-17T03:37:11.897Z,21.1
2018-04-17T03:38:02.229Z,21.1
2018-04-17T03:38:52.024Z,21.1
2018-04-17T03:39:42.368Z,21.1
2018-04-17T03:40:32.160Z,21.1
2018-04-17T03:41:30.921Z,21.1
2018-04-17T03:42:20.483Z,21.1
2018-04-17T03:43:10.240Z,21.1
2018-04-17T03:44:00.586Z,21.1
2018-04-17T03:44:50.998Z,21.1
2018-04-17T03:45:55.662Z,21.1
2018-04-17T03:46:31.079Z,21.1
2018-04-17T03:47:20.849Z,21.1
2018-04-17T03:48:11.388Z,21.1
2018-04-17T03:49:00.911Z,21.1
2018-04-17T03:49:51.351Z,21.1
2018-04-17T03:50:40.844Z,21.1
2018-04-17T03:51:31.162Z,21.1
2018-04-17T03:52:21.229Z,21.1
2018-04-17T03:53:11.314Z,21.1
2018-04-17T03:55:41.179Z,21.1
2018-04-17T03:56:31.801Z,21.1
2018-04-17T03:57:21.876Z,21.1
2018-04-17T04:08:12.710Z,21.2
2018-04-17T04:12:22.987Z,21.2
2018-04-17T04:13:12.787Z,21.2
2018-04-17T04:14:17.799Z,21.2
2018-04-17T04:15:43.020Z,21.2
2018-04-17T04:16:47.679Z,21.2
2018-04-17T04:17:22.538Z,21.2
2018-04-17T04:18:13.597Z,21.2
2018-04-17T04:19:03.495Z,21.2
2018-04-17T04:19:53.580Z,21.3
2018-04-17T04:20:43.062Z,21.3
2018-04-17T04:21:33.443Z,21.3
2018-04-17T04:22:23.756Z,21.3
2018-04-17T04:23:13.246Z,21.3
2018-04-17T04:24:04.306Z,21.3
2018-04-17T04:24:53.694Z,21.3
2018-04-17T04:25:44.410Z,21.3
2018-04-17T04:26:34.058Z,21.3
2018-04-17T04:27:23.875Z,21.3
2018-04-17T04:28:14.110Z,21.3
2018-04-17T04:29:03.891Z,21.3
2018-04-17T04:29:54.089Z,21.3
2018-04-17T04:30:43.810Z,21.3
2018-04-17T04:31:34.216Z,21.3
2018-04-17T04:32:24.276Z,21.3
2018-04-17T04:33:14.343Z,21.3
2018-04-17T04:34:04.056Z,21.3
2018-04-17T04:34:54.331Z,21.3
2018-04-17T04:35:44.751Z,21.3
2018-04-17T04:36:49.200Z,21.3
2018-04-17T04:37:24.591Z,21.3
2018-04-17T04:38:14.917Z,21.3
2018-04-17T04:39:05.055Z,21.3
2018-04-17T04:39:54.491Z,21.3
2018-04-17T04:40:45.523Z,21.3
2018-04-17T04:41:34.978Z,21.3
2018-04-17T04:42:24.992Z,21.3
2018-04-17T04:43:15.200Z,21.3
2018-04-17T04:44:20.045Z,21.3
2018-04-17T04:44:55.456Z,21.3
2018-04-17T04:45:45.397Z,21.3
2018-04-17T04:46:35.285Z,21.3
2018-04-17T04:47:25.568Z,21.3
2018-04-17T04:48:15.717Z,21.3
2018-04-17T04:49:05.496Z,21.3
2018-04-17T04:49:55.852Z,21.3
2018-04-17T04:50:45.896Z,21.3
2018-04-17T04:51:35.704Z,21.3
2018-04-17T04:52:25.949Z,21.3
2018-04-17T04:53:16.294Z,21.3
2018-04-17T04:54:06.145Z,21.3
2018-04-17T04:54:56.225Z,21.4
2018-04-17T04:55:46.170Z,21.3
2018-04-17T04:56:36.347Z,21.3
2018-04-17T04:57:26.107Z,21.3
2018-04-17T04:58:16.179Z,21.3
2018-04-17T04:59:05.971Z,21.4
2018-04-17T04:59:56.305Z,21.3
2018-04-17T05:00:46.289Z,21.4
2018-04-17T05:01:36.711Z,21.3
2018-04-17T05:02:26.757Z,21.3
2018-04-17T05:03:16.289Z,21.3
2018-04-17T05:04:06.619Z,21.3
2018-04-17T05:04:57.079Z,21.3
2018-04-17T05:05:47.044Z,21.3
2018-04-17T05:06:37.084Z,21.3
2018-04-17T05:07:27.117Z,21.4
2018-04-17T05:08:17.187Z,21.4
2018-04-17T05:09:07.659Z,21.4
2018-04-17T05:09:57.314Z,21.4
2018-04-17T05:10:47.129Z,21.4
2018-04-17T05:11:37.153Z,21.3
2018-04-17T05:12:27.224Z,21.4
2018-04-17T05:13:17.317Z,21.4
2018-04-17T05:14:07.355Z,21.3
2018-04-17T05:14:57.889Z,21.4
2018-04-17T05:15:47.509Z,21.4
2018-04-17T05:16:37.858Z,21.4
2018-04-17T05:17:42.596Z,21.3
2018-04-17T05:18:17.599Z,21.3
2018-04-17T05:19:08.232Z,21.4
2018-04-17T05:19:57.254Z,21.4
2018-04-17T05:20:48.149Z,21.4
2018-04-17T05:21:37.922Z,21.4
2018-04-17T05:22:28.252Z,21.4
2018-04-17T05:23:18.712Z,21.4
2018-04-17T05:24:08.384Z,21.4
2018-04-17T05:24:58.454Z,21.4
2018-04-17T05:25:48.236Z,21.4
2018-04-17T05:26:38.569Z,21.4
2018-04-17T05:27:28.075Z,21.4
2018-04-17T05:28:18.441Z,21.4
2018-04-17T05:29:08.724Z,21.4
2018-04-17T05:29:59.099Z,21.4
2018-04-17T05:30:48.896Z,21.4
2018-04-17T05:31:39.387Z,21.4
2018-04-17T05:32:28.732Z,21.4
2018-04-17T05:33:18.649Z,21.4
2018-04-17T05:34:08.898Z,21.4
2018-04-17T05:34:58.636Z,21.4
2018-04-17T05:35:48.979Z,21.4
2018-04-17T05:36:39.367Z,21.4
2018-04-17T05:37:28.854Z,21.4
2018-04-17T05:38:19.470Z,21.4
2018-04-17T05:39:09.264Z,21.4
2018-04-17T05:39:59.603Z,21.4
2018-04-17T05:40:49.653Z,21.4
2018-04-17T05:41:39.277Z,21.4
2018-04-17T05:42:29.506Z,21.4
2018-04-17T05:43:20.050Z,21.4
2018-04-17T05:44:09.625Z,21.4
2018-04-17T05:44:59.968Z,21.4
2018-04-17T05:45:49.741Z,21.4
2018-04-17T05:46:40.068Z,21.4
2018-04-17T05:47:30.152Z,21.4
2018-04-17T05:48:20.244Z,21.4
2018-04-17T05:49:24.655Z,21.4
2018-04-17T05:50:00.341Z,21.4
2018-04-17T05:50:50.121Z,21.4
2018-04-17T05:51:40.705Z,21.4
2018-04-17T05:52:30.243Z,21.4
2018-04-17T05:53:20.852Z,21.4
2018-04-17T05:54:10.687Z,21.4
2018-04-17T05:55:00.987Z,21.4
2018-04-17T05:55:51.701Z,21.4
2018-04-17T05:56:40.830Z,21.4
2018-04-17T05:57:30.642Z,21.4
2018-04-17T05:58:20.986Z,21.4
2018-04-17T05:59:25.698Z,21.4
2018-04-17T06:00:15.769Z,21.4
2018-04-17T06:00:51.164Z,21.4
2018-04-17T06:01:40.913Z,21.4
2018-04-17T06:02:31.272Z,21.4
2018-04-17T06:03:21.360Z,21.4
2018-04-17T06:04:11.432Z,21.4
2018-04-17T06:05:01.225Z,21.4
2018-04-17T06:05:51.595Z,21.4
2018-04-17T06:06:41.326Z,21.4
2018-04-17T06:07:31.659Z,21.4
2018-04-17T06:08:21.464Z,21.4
2018-04-17T06:09:11.522Z,21.4
2018-04-17T06:10:01.822Z,21.4
2018-04-17T06:10:51.939Z,21.4
2018-04-17T06:11:41.983Z,21.4
2018-04-17T06:12:31.821Z,21.5
2018-04-17T06:13:21.824Z,21.4
2018-04-17T06:14:12.151Z,21.4
2018-04-17T06:15:01.697Z,21.4
2018-04-17T06:15:52.325Z,21.4
2018-04-17T06:16:41.864Z,21.4
2018-04-17T06:17:31.838Z,21.4
2018-04-17T06:18:21.916Z,21.5
2018-04-17T06:19:12.268Z,21.4
2018-04-17T06:20:02.059Z,21.5
2018-04-17T06:20:52.368Z,21.5
2018-04-17T06:21:42.428Z,21.4
2018-04-17T06:22:32.542Z,21.5
2018-04-17T06:23:23.279Z,21.5
2018-04-17T06:24:12.911Z,21.5
2018-04-17T06:25:03.105Z,21.5
2018-04-17T06:25:52.742Z,21.5
2018-04-17T06:26:43.323Z,21.5
2018-04-17T06:27:33.165Z,21.5
2018-04-17T06:28:22.909Z,21.5
2018-04-17T06:29:13.123Z,21.5
2018-04-17T06:30:02.882Z,21.4
2018-04-17T06:30:53.160Z,21.5
2018-04-17T06:31:42.908Z,21.5
2018-04-17T06:32:32.944Z,21.5
2018-04-17T06:33:23.576Z,21.5
2018-04-17T06:34:13.108Z,21.5
2018-04-17T06:35:03.360Z,21.5
2018-04-17T06:35:53.790Z,21.5
2018-04-17T06:36:43.574Z,21.5
2018-04-17T06:37:33.684Z,21.5
2018-04-17T06:38:23.982Z,21.5
2018-04-17T06:39:13.682Z,21.5
2018-04-17T06:40:03.585Z,21.5
2018-04-17T06:40:53.877Z,21.5
2018-04-17T06:41:43.619Z,21.5
2018-04-17T06:42:34.022Z,21.5
2018-04-17T06:43:24.344Z,21.5
2018-04-17T06:44:14.154Z,21.5
2018-04-17T06:45:03.941Z,21.5
2018-04-17T06:45:54.283Z,21.5
2018-04-17T06:46:44.347Z,21.5
2018-04-17T06:47:35.309Z,21.5
2018-04-17T06:48:39.074Z,21.5
2018-04-17T06:49:15.251Z,21.5
2018-04-17T06:50:04.605Z,21.5
2018-04-17T06:50:54.950Z,21.5
2018-04-17T06:51:45.001Z,21.5
2018-04-17T06:52:34.957Z,21.5
2018-04-17T06:53:24.854Z,21.5
2018-04-17T06:54:14.924Z,21.5
2018-04-17T06:55:04.993Z,21.5
2018-04-17T06:55:54.733Z,21.5
2018-04-17T06:56:45.152Z,21.6
2018-04-17T06:57:35.453Z,21.5
2018-04-17T06:58:24.453Z,21.5
2018-04-17T06:59:15.285Z,21.6
2018-04-17T07:00:05.643Z,21.6
2018-04-17T07:00:55.685Z,21.6
2018-04-17T07:01:45.763Z,21.6
2018-04-17T07:02:35.524Z,21.6
2018-04-17T07:03:25.703Z,21.5
2018-04-17T07:04:15.920Z,21.6
2018-04-17T07:05:05.759Z,21.8
2018-04-17T07:05:56.483Z,26.9
2018-04-17T07:06:45.854Z,40.6
2018-04-17T07:07:36.634Z,47.7
2018-04-17T07:08:25.383Z,48.9
2018-04-17T07:09:16.316Z,48.3
2018-04-17T07:10:06.376Z,46.1
2018-04-17T07:10:56.164Z,44.4
2018-04-17T07:11:45.799Z,43.4
2018-04-17T07:12:36.776Z,42.8
2018-04-17T07:13:25.771Z,42.3
2018-04-17T07:14:16.143Z,41.9
2018-04-17T07:15:06.704Z,41.4
2018-04-17T07:15:56.957Z,40.9
2018-04-17T07:16:46.871Z,40.6
2018-04-17T07:17:36.406Z,40.1
2018-04-17T07:18:26.720Z,39.7
2018-04-17T07:19:17.116Z,39.3
2018-04-17T07:20:06.872Z,38.9
2018-04-17T07:20:57.359Z,38.5
2018-04-17T07:22:01.354Z,38.2
2018-04-17T07:22:36.877Z,37.7
2018-04-17T07:23:26.910Z,37.4
2018-04-17T07:24:16.901Z,37.1
2018-04-17T07:25:07.346Z,36.8
2018-04-17T07:25:57.576Z,36.4
2018-04-17T07:26:47.101Z,39.8
2018-04-17T07:27:37.598Z,42.3
2018-04-17T07:28:27.762Z,48.2
2018-04-17T07:29:32.450Z,51.8
2018-04-17T07:30:08.138Z,51.1
2018-04-17T07:30:57.948Z,50.3
2018-04-17T07:31:48.024Z,47.7
2018-04-17T07:32:38.073Z,46.3
2018-04-17T07:33:27.943Z,45.5
2018-04-17T07:34:18.015Z,44.9
2018-04-17T07:35:08.287Z,44.1
2018-04-17T07:35:57.521Z,43.8
2018-04-17T07:36:48.143Z,43.3
2018-04-17T07:37:38.203Z,42.8
2018-04-17T07:38:28.635Z,42.5
2018-04-17T07:39:18.538Z,46.4
2018-04-17T07:40:08.660Z,47.4
2018-04-17T07:40:58.245Z,51.3
2018-04-17T07:41:48.798Z,52
2018-04-17T07:42:38.603Z,51.4
2018-04-17T07:43:43.828Z,50.8
2018-04-17T07:44:18.997Z,49.6
2018-04-17T07:45:22.874Z,48.8
2018-04-17T07:45:59.132Z,47.7
2018-04-17T07:46:49.400Z,47.2
2018-04-17T07:47:39.005Z,46.6
2018-04-17T07:48:29.313Z,46.1
2018-04-17T07:49:34.036Z,47.1
2018-04-17T07:50:09.167Z,48.8
2018-04-17T07:50:59.514Z,51.8
2018-04-17T07:51:49.039Z,53.3
2018-04-17T07:52:39.616Z,52.1
2018-04-17T07:53:29.689Z,51.1
2018-04-17T07:54:19.766Z,50.1
2018-04-17T07:55:09.831Z,49.2
2018-04-17T07:55:59.887Z,48.4
2018-04-17T07:56:49.381Z,47.8
2018-04-17T07:57:40.039Z,47.2
2018-04-17T07:58:30.118Z,46.7
2018-04-17T07:59:20.045Z,46.1
2018-04-17T08:00:10.199Z,45.6
2018-04-17T08:01:00.277Z,45.1
2018-04-17T08:01:50.036Z,46.1
2018-04-17T08:02:40.633Z,46.8
2018-04-17T08:03:30.451Z,50.4
2018-04-17T08:04:20.756Z,52.3
2018-04-17T08:05:10.321Z,52.1
2018-04-17T08:06:00.658Z,52.1
2018-04-17T08:07:05.098Z,51.8
2018-04-17T08:07:40.804Z,50.8
2018-04-17T08:08:30.385Z,50.3
2018-04-17T08:09:20.643Z,49.6
2018-04-17T08:10:10.758Z,49.4
2018-04-17T08:11:01.029Z,49.8
2018-04-17T08:11:51.188Z,50.4
2018-04-17T08:12:40.838Z,51.1
2018-04-17T08:13:30.409Z,51.6
2018-04-17T08:15:10.247Z,52.3
2018-04-17T08:16:01.427Z,52.5
2018-04-17T08:16:51.226Z,52.6
2018-04-17T08:17:41.790Z,52.5
2018-04-17T08:18:31.375Z,52.5
2018-04-17T08:19:21.320Z,52.6
2018-04-17T08:20:10.907Z,52.8
2018-04-17T08:21:01.767Z,53
2018-04-17T08:21:50.901Z,53.3
2018-04-17T08:22:41.660Z,53.8
2018-04-17T08:23:30.991Z,54.1
2018-04-17T08:24:21.804Z,54.5
2018-04-17T08:25:12.121Z,54.6
2018-04-17T08:26:02.172Z,54.7
2018-04-17T08:27:42.318Z,55.3
2018-04-17T08:28:31.934Z,55.4
2018-04-17T08:29:22.179Z,55.8
2018-04-17T08:30:26.897Z,56.4
2018-04-17T08:31:02.039Z,57
2018-04-17T08:31:52.644Z,57.3
2018-04-17T08:32:42.729Z,57.6
2018-04-17T08:33:32.169Z,57.8
2018-04-17T08:34:22.818Z,58
2018-04-17T08:35:12.641Z,58.1
2018-04-17T08:36:02.476Z,58.3
2018-04-17T08:36:53.372Z,58.6
2018-04-17T08:37:43.116Z,58.9
2018-04-17T08:38:33.171Z,59.1
2018-04-17T08:39:23.288Z,59.4
2018-04-17T08:40:13.277Z,59.6
2018-04-17T08:41:03.084Z,59.9
2018-04-17T08:41:53.662Z,60
2018-04-17T08:42:43.715Z,60.2
2018-04-17T08:43:33.565Z,60.4
2018-04-17T08:44:23.337Z,60.4
2018-04-17T08:45:13.678Z,60.5
2018-04-17T08:46:03.741Z,60.4
2018-04-17T08:47:25.845Z,59.9
2018-04-17T08:48:33.866Z,58.3
2018-04-17T08:49:23.254Z,57.5
2018-04-17T08:50:14.051Z,57.1
2018-04-17T08:51:03.848Z,56.8
2018-04-17T08:51:53.901Z,56.8
2018-04-17T08:52:43.417Z,56.9
2018-04-17T08:53:34.147Z,57
2018-04-17T08:54:24.662Z,56.9
2018-04-17T08:55:14.155Z,56.6
2018-04-17T08:56:03.407Z,56.4
2018-04-17T08:56:54.022Z,56.3
2018-04-17T08:57:44.618Z,56.2
2018-04-17T08:58:34.700Z,56.3
2018-04-17T08:59:39.738Z,56.4
2018-04-17T09:00:14.830Z,56.6
2018-04-17T09:01:05.122Z,56.7
2018-04-17T09:01:54.681Z,56.9
2018-04-17T09:03:39.774Z,56.2
2018-04-17T09:04:29.548Z,56.1
2018-04-17T09:05:20.253Z,55.6
2018-04-17T09:06:09.934Z,55.1
2018-04-17T09:06:59.735Z,54.5
2018-04-17T09:07:49.841Z,54.4
2018-04-17T09:08:40.195Z,54.2
2018-04-17T09:09:30.189Z,54
2018-04-17T09:10:20.272Z,53.9
2018-04-17T09:11:11.063Z,53.8
2018-04-17T09:12:00.419Z,53.7
2018-04-17T09:12:49.974Z,53.8
2018-04-17T09:13:40.067Z,53.9
2018-04-17T09:14:30.131Z,54.1
2018-04-17T09:15:34.744Z,54.1
2018-04-17T09:16:10.747Z,54.1
2018-04-17T09:16:59.953Z,54.1
2018-04-17T09:17:50.581Z,54.1
2018-04-17T09:18:40.944Z,54.1
2018-04-17T09:19:31.018Z,54.1
2018-04-17T09:20:20.571Z,54.3
2018-04-17T09:21:10.556Z,54.5
2018-04-17T09:22:01.196Z,54.8
2018-04-17T09:23:05.634Z,55
2018-04-17T09:23:41.301Z,54.9
2018-04-17T09:24:30.321Z,54.8
2018-04-17T09:25:20.591Z,54.6
2018-04-17T09:26:11.699Z,54.4
2018-04-17T09:27:00.236Z,54.3
2018-04-17T09:27:51.064Z,54.1
2018-04-17T09:28:41.708Z,53.9
2018-04-17T09:29:31.494Z,53.9
2018-04-17T09:30:21.561Z,53.8
2018-04-17T09:31:11.849Z,53.6
2018-04-17T09:32:01.963Z,53.5
2018-04-17T09:32:52.019Z,53.3
2018-04-17T09:33:42.320Z,53.1
2018-04-17T09:34:32.106Z,52.9
2018-04-17T09:35:21.620Z,52.7
2018-04-17T09:36:12.339Z,52.6
2018-04-17T09:37:02.071Z,52.5
2018-04-17T09:37:52.127Z,52.5
2018-04-17T09:38:42.473Z,52.6
2018-04-17T09:39:32.225Z,52.8
2018-04-17T09:40:22.619Z,53
2018-04-17T09:41:12.647Z,53.5
2018-04-17T09:42:02.142Z,53.6
2018-04-17T09:42:52.492Z,53.6
2018-04-17T09:43:42.572Z,53.4
2018-04-17T09:44:33.087Z,53.2
2018-04-17T09:45:23.143Z,52.9
2018-04-17T09:46:12.754Z,52.7
2018-04-17T09:47:03.092Z,52.6
2018-04-17T09:47:52.887Z,52.6
2018-04-17T09:48:43.200Z,52.7
2018-04-17T09:49:33.337Z,52.7
2018-04-17T09:50:23.112Z,52.8
2018-04-17T09:51:13.446Z,52.7
2018-04-17T09:52:02.162Z,52.6
2018-04-17T09:52:53.564Z,52.6
2018-04-17T09:53:43.077Z,52.5
2018-04-17T09:54:33.427Z,52.4
2018-04-17T09:55:23.452Z,52.5
2018-04-17T09:56:13.416Z,52.6
2018-04-17T09:57:04.302Z,52.9
2018-04-17T09:57:53.698Z,53.2
2018-04-17T09:58:58.707Z,53.4
2018-04-17T09:59:33.513Z,53.5
2018-04-17T10:00:23.851Z,53.5
2018-04-17T10:01:13.532Z,53.5
2018-04-17T10:02:04.159Z,53.5
2018-04-17T10:02:53.566Z,53.6
2018-04-17T10:03:44.384Z,53.6
2018-04-17T10:04:34.426Z,53.8
2018-04-17T10:05:24.530Z,53.8
2018-04-17T10:06:14.088Z,54.2
2018-04-17T10:07:03.785Z,54.6
2018-04-17T10:07:54.728Z,55.3
2018-04-17T10:08:44.474Z,55.8
2018-04-17T10:09:34.776Z,56.3
2018-04-17T10:10:24.568Z,55.9
2018-04-17T10:11:14.966Z,55.6
2018-04-17T10:12:05.082Z,55.3
2018-04-17T10:12:54.828Z,54.9
2018-04-17T10:13:44.860Z,54.6
2018-04-17T10:14:34.677Z,54.5
2018-04-17T10:15:25.009Z,54.6
2018-04-17T10:16:15.061Z,55.1
2018-04-17T10:17:04.863Z,55.6
2018-04-17T10:17:55.218Z,56.1
2018-04-17T10:18:44.969Z,56.9
2018-04-17T10:19:35.488Z,57.3
2018-04-17T10:20:25.453Z,57.6
2018-04-17T10:21:15.742Z,57.6
2018-04-17T10:22:05.512Z,57.3
2018-04-17T10:22:55.100Z,57
2018-04-17T10:23:45.647Z,56.6
2018-04-17T10:24:36.005Z,56.2
2018-04-17T10:25:25.792Z,55.9
2018-04-17T10:26:16.052Z,55.9
2018-04-17T10:27:06.188Z,55.8
2018-04-17T10:27:55.975Z,55.8
2018-04-17T10:29:35.834Z,55.7
2018-04-17T10:30:26.242Z,55.6
2018-04-17T10:31:15.921Z,55.6
2018-04-17T10:32:06.022Z,55.5
2018-04-17T10:32:56.554Z,55.5
2018-04-17T10:34:24.193Z,55.3
2018-04-17T10:35:14.256Z,55.1
2018-04-17T10:36:04.329Z,55
2018-04-17T10:36:54.129Z,54.9
2018-04-17T10:37:44.162Z,54.8
2018-04-17T10:38:34.536Z,54.7
2018-04-17T10:39:24.124Z,54.6
2018-04-17T10:40:14.624Z,54.4
2018-04-17T10:41:04.460Z,54.3
2018-04-17T10:41:54.801Z,54.2
2018-04-17T10:42:44.633Z,54.1
2018-04-17T10:43:34.893Z,54.1
2018-04-17T10:44:24.688Z,54.1
2018-04-17T10:45:13.982Z,54.1
2018-04-17T10:46:04.624Z,54.1
2018-04-17T10:46:55.156Z,54.1
2018-04-17T10:47:44.419Z,54.2
2018-04-17T10:48:34.689Z,54.2
2018-04-17T10:49:24.596Z,54.3
2018-04-17T10:50:14.864Z,54.2
2018-04-17T10:51:05.205Z,54.1
2018-04-17T10:51:55.246Z,53.9
2018-04-17T10:52:45.333Z,53.9
2018-04-17T10:53:35.653Z,53.8
2018-04-17T10:54:25.479Z,53.8
2018-04-17T10:55:15.761Z,53.9
2018-04-17T10:56:05.279Z,54.2
2018-04-17T10:56:55.630Z,54.5
2018-04-17T10:57:45.498Z,54.9
2018-04-17T10:58:36.083Z,55.3
2018-04-17T10:59:24.991Z,55.6
2018-04-17T11:00:16.216Z,56
2018-04-17T11:01:06.292Z,56.3
2018-04-17T11:01:56.304Z,56.4
2018-04-17T11:02:45.808Z,56.3
2018-04-17T11:03:36.427Z,56.3
2018-04-17T11:04:26.519Z,56.3
2018-04-17T11:05:16.574Z,56.6
2018-04-17T11:06:06.628Z,56.6
2018-04-17T11:06:56.392Z,56.6
2018-04-17T11:07:46.747Z,56.6
2018-04-17T11:08:36.263Z,56.6
2018-04-17T11:09:26.665Z,56.6
2018-04-17T11:10:16.980Z,56.8
2018-04-17T11:11:06.738Z,56.8
2018-04-17T11:11:57.103Z,56.8
2018-04-17T11:12:47.149Z,57
2018-04-17T11:13:36.642Z,57.4
2018-04-17T11:14:27.059Z,57.9
2018-04-17T11:15:17.062Z,58.3
2018-04-17T11:16:07.432Z,58.5
2018-04-17T11:16:57.496Z,58.7
2018-04-17T11:17:47.532Z,58.7
2018-04-17T11:18:37.607Z,58.3
2018-04-17T11:19:27.430Z,57.7
2018-04-17T11:20:17.725Z,57.1
2018-04-17T11:21:07.227Z,57
2018-04-17T11:21:57.842Z,57.4
2018-04-17T11:22:47.897Z,57.9
2018-04-17T11:23:37.402Z,58.4
2018-04-17T11:24:28.085Z,59
2018-04-17T11:25:17.840Z,59.3
2018-04-17T11:26:08.199Z,59.1
2018-04-17T11:26:57.391Z,58.6
2018-04-17T11:27:48.009Z,58.1
2018-04-17T11:28:38.084Z,57.6
2018-04-17T11:29:28.151Z,57.3
2018-04-17T11:30:18.221Z,57.1
2018-04-17T11:31:07.998Z,57.2